createdAt,value
2023-01-15T00:02:12.944Z,7.20
2023-01-15T00:04:39.964Z,7.20
2023-01-15T00:07:06.988Z,7.20
2023-01-15T00:09:33.988Z,7.20
2023-01-15T00:12:02.319Z,7.20
2023-01-15T00:14:29.320Z,7.10
2023-01-15T00:16:56.299Z,7.10
2023-01-15T00:19:23.278Z,7.10
2023-01-15T00:21:50.348Z,7.10
2023-01-15T00:24:35.844Z,7.10
2023-01-15T00:27:21.466Z,7.10
2023-01-15T00:29:48.611Z,7.10
2023-01-15T00:32:15.488Z,7.10
2023-01-15T00:34:42.490Z,7.10
2023-01-15T00:37:09.446Z,7.10
2023-01-15T00:39:36.436Z,7.20
2023-01-15T00:42:03.815Z,7.20
2023-01-15T00:44:33.209Z,7.30
2023-01-15T00:47:00.491Z,7.40
2023-01-15T00:49:27.446Z,7.40
2023-01-15T00:51:54.492Z,7.40
2023-01-15T00:54:21.855Z,7.40
2023-01-15T00:56:48.767Z,7.40
2023-01-15T00:59:16.157Z,7.50
2023-01-15T01:01:43.368Z,7.50
2023-01-15T01:04:10.455Z,7.50
2023-01-15T01:06:37.566Z,7.50
2023-01-15T01:09:04.682Z,7.50
2023-01-15T01:11:34.455Z,7.50
2023-01-15T01:14:02.827Z,7.60
2023-01-15T01:16:38.691Z,7.60
2023-01-15T01:19:12.686Z,7.60
2023-01-15T01:21:40.953Z,7.70
2023-01-15T01:24:08.316Z,7.70
2023-01-15T01:26:35.706Z,7.70
2023-01-15T01:29:03.130Z,7.80
2023-01-15T01:31:30.204Z,7.80
2023-01-15T01:33:59.205Z,7.80
2023-01-15T01:36:36.658Z,7.80
2023-01-15T01:39:05.687Z,7.80
2023-01-15T01:41:32.992Z,8.00
2023-01-15T01:44:05.753Z,8.00
2023-01-15T01:46:34.880Z,8.10
2023-01-15T01:49:14.497Z,8.10
2023-01-15T01:51:48.691Z,8.20
2023-01-15T01:54:19.907Z,8.30
2023-01-15T01:56:49.771Z,8.40
2023-01-15T01:59:20.294Z,8.40
2023-01-15T02:01:49.505Z,8.50
2023-01-15T02:04:18.625Z,8.60
2023-01-15T02:06:45.546Z,8.70
2023-01-15T02:09:12.855Z,8.70
2023-01-15T02:11:39.989Z,8.60
2023-01-15T02:14:38.288Z,8.60
2023-01-15T02:17:16.820Z,8.60
2023-01-15T02:19:52.872Z,8.60
2023-01-15T02:22:44.430Z,8.50
2023-01-15T02:25:28.577Z,8.50
2023-01-15T02:28:04.327Z,8.40
2023-01-15T02:30:38.727Z,8.30
2023-01-15T02:33:12.173Z,8.30
2023-01-15T02:35:45.682Z,8.40
2023-01-15T02:38:17.065Z,8.40
2023-01-15T02:40:44.440Z,8.50
2023-01-15T02:43:14.339Z,8.60
2023-01-15T02:45:43.762Z,8.60
2023-01-15T02:48:14.193Z,8.50
2023-01-15T02:50:45.618Z,8.50
2023-01-15T02:53:17.253Z,8.50
2023-01-15T02:55:49.301Z,8.50
2023-01-15T02:58:26.938Z,8.60
2023-01-15T03:00:56.761Z,8.70
2023-01-15T03:03:42.527Z,8.80
2023-01-15T03:06:33.172Z,8.90
2023-01-15T03:09:00.356Z,9.00
2023-01-15T03:11:28.120Z,9.10
2023-01-15T03:14:06.302Z,9.20
2023-01-15T03:16:39.366Z,9.30
2023-01-15T03:19:39.279Z,9.30
2023-01-15T03:22:27.325Z,9.30
2023-01-15T03:25:19.209Z,9.20
2023-01-15T03:27:46.204Z,9.20
2023-01-15T03:30:16.494Z,9.20
2023-01-15T03:32:43.729Z,9.20
2023-01-15T03:35:45.660Z,9.30
2023-01-15T03:38:15.053Z,9.40
2023-01-15T03:41:09.329Z,9.40
2023-01-15T03:43:47.162Z,9.50
2023-01-15T03:46:37.052Z,9.50
2023-01-15T03:49:24.756Z,9.40
2023-01-15T03:52:08.405Z,9.40
2023-01-15T03:55:24.554Z,9.40
2023-01-15T03:58:11.923Z,9.50
2023-01-15T04:00:53.078Z,9.50
2023-01-15T04:03:22.831Z,9.60
2023-01-15T04:05:51.839Z,9.50
2023-01-15T04:08:19.922Z,9.50
2023-01-15T04:10:58.743Z,9.50
2023-01-15T04:13:26.152Z,9.60
2023-01-15T04:15:53.549Z,9.50
2023-01-15T04:18:21.380Z,9.50
2023-01-15T04:20:49.175Z,9.50
2023-01-15T04:23:16.373Z,9.50
2023-01-15T04:25:43.472Z,9.50
2023-01-15T04:28:10.426Z,9.60
2023-01-15T04:30:37.571Z,9.50
2023-01-15T04:33:05.254Z,9.60
2023-01-15T04:35:32.235Z,9.50
2023-01-15T04:38:00.391Z,9.50
2023-01-15T04:40:46.404Z,9.50
2023-01-15T04:43:32.941Z,9.50
2023-01-15T04:46:00.424Z,9.50
2023-01-15T04:48:27.703Z,9.40
2023-01-15T04:50:55.155Z,9.30
2023-01-15T04:53:22.194Z,9.30
2023-01-15T04:55:49.153Z,9.10
2023-01-15T04:58:16.167Z,9.10
2023-01-15T05:00:43.141Z,9.00
2023-01-15T05:03:10.070Z,8.90
2023-01-15T05:05:37.057Z,8.90
2023-01-15T05:08:04.126Z,8.90
2023-01-15T05:10:31.077Z,8.90
2023-01-15T05:12:58.015Z,8.90
2023-01-15T05:15:25.379Z,8.80
2023-01-15T05:17:52.366Z,8.80
2023-01-15T05:20:19.326Z,8.80
2023-01-15T05:22:46.253Z,8.70
2023-01-15T05:25:13.309Z,8.70
2023-01-15T05:27:41.006Z,8.70
2023-01-15T05:30:08.931Z,8.70
2023-01-15T05:32:35.967Z,8.70
2023-01-15T05:35:02.873Z,8.70
2023-01-15T05:37:30.661Z,8.80
2023-01-15T05:39:57.710Z,8.80
2023-01-15T05:42:24.650Z,8.90
2023-01-15T05:44:51.545Z,9.20
2023-01-15T05:47:18.773Z,9.30
2023-01-15T05:49:45.818Z,9.60
2023-01-15T05:52:12.890Z,9.70
2023-01-15T05:54:39.819Z,9.80
2023-01-15T05:57:06.904Z,9.80
2023-01-15T05:59:33.969Z,9.80
2023-01-15T06:02:01.409Z,9.90
2023-01-15T06:04:28.334Z,9.80
2023-01-15T06:06:56.640Z,9.80
2023-01-15T06:09:24.264Z,9.80
2023-01-15T06:11:53.759Z,9.80
2023-01-15T06:14:20.749Z,9.80
2023-01-15T06:16:48.864Z,9.90
2023-01-15T06:19:15.984Z,9.90
2023-01-15T06:21:43.903Z,9.80
2023-01-15T06:24:18.393Z,9.70
2023-01-15T06:26:47.119Z,9.60
2023-01-15T06:29:19.055Z,9.50
2023-01-15T06:31:49.791Z,9.40
2023-01-15T06:34:18.611Z,9.10
2023-01-15T06:36:45.634Z,9.00
2023-01-15T06:39:12.637Z,8.80
2023-01-15T06:42:01.229Z,8.70
2023-01-15T06:44:47.843Z,8.50
2023-01-15T06:47:38.856Z,8.40
2023-01-15T06:50:06.611Z,8.30
2023-01-15T06:52:35.422Z,8.20
2023-01-15T06:55:02.432Z,8.20
2023-01-15T06:57:31.367Z,8.10
2023-01-15T06:59:58.767Z,8.00
2023-01-15T07:02:26.248Z,8.00
2023-01-15T07:04:53.627Z,7.90
2023-01-15T07:07:23.877Z,7.80
2023-01-15T07:09:52.910Z,7.80
2023-01-15T07:12:21.406Z,7.70
2023-01-15T07:14:48.939Z,7.70
2023-01-15T07:17:22.202Z,7.70
2023-01-15T07:19:49.744Z,7.70
2023-01-15T07:22:19.212Z,7.60
2023-01-15T07:24:49.752Z,7.50
2023-01-15T07:27:25.768Z,7.50
2023-01-15T07:29:56.746Z,7.50
2023-01-15T07:32:32.161Z,7.40
2023-01-15T07:35:00.481Z,7.30
2023-01-15T07:37:29.472Z,7.20
2023-01-15T07:40:02.082Z,7.20
2023-01-15T07:42:51.038Z,7.20
2023-01-15T07:45:43.099Z,7.10
2023-01-15T07:48:30.930Z,7.10
2023-01-15T07:50:58.145Z,7.10
2023-01-15T07:53:30.869Z,7.00
2023-01-15T07:56:03.935Z,7.00
2023-01-15T07:58:50.479Z,7.00
2023-01-15T08:01:22.941Z,6.90
2023-01-15T08:03:55.775Z,6.90
2023-01-15T08:06:29.087Z,6.80
2023-01-15T08:08:56.928Z,6.70
2023-01-15T08:11:47.527Z,6.60
2023-01-15T08:14:34.429Z,6.50
2023-01-15T08:17:01.594Z,6.50
2023-01-15T08:19:32.895Z,6.40
2023-01-15T08:22:02.853Z,6.30
2023-01-15T08:24:31.130Z,6.30
2023-01-15T08:26:58.909Z,6.30
2023-01-15T08:29:27.053Z,6.30
2023-01-15T08:32:03.507Z,6.30
2023-01-15T08:34:32.362Z,6.30
2023-01-15T08:37:01.654Z,6.30
2023-01-15T08:39:50.078Z,6.30
2023-01-15T08:42:37.528Z,6.30
2023-01-15T08:45:06.952Z,6.40
2023-01-15T08:47:34.548Z,6.30
2023-01-15T08:50:01.909Z,6.30
2023-01-15T08:52:29.905Z,6.30
2023-01-15T08:57:47.644Z,6.30
2023-01-15T09:00:17.354Z,6.30
2023-01-15T09:02:50.915Z,6.30
2023-01-15T09:05:23.798Z,6.30
2023-01-15T09:07:57.922Z,6.30
2023-01-15T09:10:32.828Z,6.30
2023-01-15T09:13:04.582Z,6.30
2023-01-15T09:15:33.826Z,6.20
2023-01-15T09:18:05.490Z,6.20
2023-01-15T09:20:34.113Z,6.20
2023-01-15T09:23:01.242Z,6.30
2023-01-15T09:25:28.662Z,6.30
2023-01-15T09:27:56.884Z,6.30
2023-01-15T09:30:27.238Z,6.30
2023-01-15T09:32:55.469Z,6.20
2023-01-15T09:35:23.003Z,6.20
2023-01-15T09:37:54.099Z,6.30
2023-01-15T09:40:55.848Z,6.20
2023-01-15T09:43:51.511Z,6.20
2023-01-15T09:46:54.076Z,6.10
2023-01-15T09:49:46.521Z,6.00
2023-01-15T09:52:31.352Z,6.00
2023-01-15T09:55:27.272Z,6.00
2023-01-15T09:57:59.019Z,6.00
2023-01-15T10:00:29.869Z,5.90
2023-01-15T10:03:56.570Z,5.90
2023-01-15T10:06:45.518Z,5.90
2023-01-15T10:09:35.302Z,5.80
2023-01-15T10:12:35.562Z,5.80
2023-01-15T10:15:13.805Z,5.80
2023-01-15T10:17:42.316Z,5.80
2023-01-15T10:20:28.945Z,5.80
2023-01-15T10:23:38.275Z,5.70
2023-01-15T10:26:25.569Z,5.80
2023-01-15T10:29:03.798Z,5.80
2023-01-15T10:31:51.862Z,5.80
2023-01-15T10:35:05.343Z,5.70
2023-01-15T10:37:49.881Z,5.70
2023-01-15T10:40:25.263Z,5.70
2023-01-15T10:43:25.725Z,5.70
2023-01-15T10:46:18.139Z,5.80
2023-01-15T10:48:57.560Z,5.80
2023-01-15T10:51:31.189Z,5.70
2023-01-15T10:54:11.696Z,5.80
2023-01-15T10:57:12.379Z,5.70
2023-01-15T11:00:11.777Z,5.60
2023-01-15T11:02:44.367Z,5.60
2023-01-15T11:05:20.142Z,5.60
2023-01-15T11:08:14.104Z,5.60
2023-01-15T11:10:40.687Z,5.60
2023-01-15T11:14:10.857Z,5.50
2023-01-15T11:17:02.047Z,5.60
2023-01-15T11:19:39.952Z,5.50
2023-01-15T11:22:37.159Z,5.50
2023-01-15T11:25:05.006Z,5.50
2023-01-15T11:27:39.031Z,5.40
2023-01-15T11:34:06.432Z,5.30
2023-01-15T11:36:37.041Z,5.40
2023-01-15T11:39:04.377Z,5.30
2023-01-15T11:41:56.509Z,5.30
2023-01-15T11:44:43.597Z,5.40
2023-01-15T11:50:45.621Z,5.30
2023-01-15T11:53:21.176Z,5.30
2023-01-15T11:56:09.432Z,5.20
2023-01-15T11:58:55.800Z,5.20
2023-01-15T12:02:01.475Z,5.10
2023-01-15T12:04:55.796Z,5.20
2023-01-15T12:07:26.134Z,5.10
2023-01-15T12:10:16.185Z,5.00
2023-01-15T12:13:22.541Z,5.00
2023-01-15T12:16:09.282Z,4.90
2023-01-15T12:19:26.787Z,4.90
2023-01-15T12:22:02.877Z,4.80
2023-01-15T12:24:41.912Z,4.70
2023-01-15T12:27:35.203Z,4.60
2023-01-15T12:30:27.006Z,4.60
2023-01-15T12:33:20.004Z,4.50
2023-01-15T12:36:24.679Z,4.50
2023-01-15T12:39:02.395Z,4.50
2023-01-15T12:41:55.383Z,4.50
2023-01-15T12:45:05.441Z,4.50
2023-01-15T12:47:41.666Z,4.50
2023-01-15T12:50:39.674Z,4.50
2023-01-15T12:53:25.479Z,4.40
2023-01-15T12:56:12.665Z,4.40
2023-01-15T12:58:49.734Z,4.40
2023-01-15T13:01:49.134Z,4.40
2023-01-15T13:04:42.496Z,4.30
2023-01-15T13:07:38.280Z,4.30
2023-01-15T13:10:30.988Z,4.20
2023-01-15T13:13:14.002Z,4.20
2023-01-15T13:15:47.799Z,4.20
2023-01-15T13:18:42.686Z,4.10
2023-01-15T13:21:14.230Z,4.10
2023-01-15T13:24:18.692Z,4.10
2023-01-15T13:26:53.677Z,4.10
2023-01-15T13:29:56.501Z,4.10
2023-01-15T13:32:56.711Z,4.20
2023-01-15T13:35:40.605Z,4.20
2023-01-15T13:38:16.380Z,4.20
2023-01-15T13:40:50.527Z,4.20
2023-01-15T13:43:41.505Z,4.20
2023-01-15T13:46:20.469Z,4.10
2023-01-15T13:48:50.340Z,4.10
2023-01-15T13:51:43.240Z,4.10
2023-01-15T13:54:16.245Z,4.10
2023-01-15T13:56:44.791Z,4.00
2023-01-15T13:59:44.557Z,4.00
2023-01-15T14:02:41.336Z,4.00
2023-01-15T14:05:29.704Z,4.00
2023-01-15T14:07:56.777Z,4.00
2023-01-15T14:10:36.246Z,4.00
2023-01-15T14:13:15.184Z,4.00
2023-01-15T14:16:32.359Z,4.00
2023-01-15T14:19:24.664Z,4.00
2023-01-15T14:22:23.440Z,4.00
2023-01-15T14:24:56.415Z,4.00
2023-01-15T14:27:29.480Z,4.00
2023-01-15T14:30:32.511Z,4.00
2023-01-15T14:33:55.003Z,4.00
2023-01-15T14:36:29.991Z,4.00
2023-01-15T14:39:03.290Z,4.00
2023-01-15T14:41:59.529Z,4.00
2023-01-15T14:44:31.302Z,4.00
2023-01-15T14:47:04.463Z,4.00
2023-01-15T14:49:42.978Z,4.00
2023-01-15T14:52:10.464Z,4.00
2023-01-15T14:54:39.559Z,4.00
2023-01-15T14:57:09.799Z,3.90
2023-01-15T14:59:46.815Z,4.00
2023-01-15T15:02:25.547Z,4.00
2023-01-15T15:04:56.222Z,4.10
2023-01-15T15:07:43.684Z,4.20
2023-01-15T15:10:39.986Z,4.10
2023-01-15T15:13:27.955Z,4.00
2023-01-15T15:16:11.751Z,4.00
2023-01-15T15:18:50.260Z,3.90
2023-01-15T15:21:23.779Z,3.80
2023-01-15T15:23:59.897Z,3.80
2023-01-15T15:26:30.963Z,3.80
2023-01-15T15:29:02.372Z,3.80
2023-01-15T15:31:37.100Z,3.70
2023-01-15T15:34:07.241Z,3.60
2023-01-15T15:36:39.554Z,3.60
2023-01-15T15:39:53.311Z,3.50
2023-01-15T15:42:50.277Z,3.40
2023-01-15T15:45:39.428Z,3.40
2023-01-15T15:48:42.138Z,3.30
2023-01-15T15:51:34.429Z,3.20
2023-01-15T15:54:13.549Z,3.20
2023-01-15T15:56:53.054Z,3.20
2023-01-15T15:59:30.345Z,3.20
2023-01-15T16:02:01.238Z,3.20
2023-01-15T16:04:28.850Z,3.20
2023-01-15T16:06:55.802Z,3.30
2023-01-15T16:09:24.336Z,3.20
2023-01-15T16:11:53.400Z,3.20
2023-01-15T16:14:21.893Z,3.10
2023-01-15T16:16:50.332Z,3.10
2023-01-15T16:19:25.645Z,3.10
2023-01-15T16:21:53.850Z,3.10
2023-01-15T16:24:30.104Z,3.10
2023-01-15T16:27:17.576Z,3.10
2023-01-15T16:29:51.262Z,3.10
2023-01-15T16:32:24.814Z,3.10
2023-01-15T16:35:07.187Z,3.10
2023-01-15T16:37:35.926Z,3.20
2023-01-15T16:40:05.261Z,3.20
2023-01-15T16:42:37.569Z,3.20
2023-01-15T16:45:25.765Z,3.20
2023-01-15T16:48:08.060Z,3.20
2023-01-15T16:50:36.884Z,3.20
2023-01-15T16:53:06.686Z,3.20
2023-01-15T16:55:43.103Z,3.20
2023-01-15T16:58:13.785Z,3.20
2023-01-15T17:00:48.844Z,3.10
2023-01-15T17:03:25.101Z,3.20
2023-01-15T17:05:56.269Z,3.10
2023-01-15T17:08:32.116Z,3.00
2023-01-15T17:11:01.966Z,3.10
2023-01-15T17:13:38.552Z,3.10
2023-01-15T17:16:26.334Z,3.10
2023-01-15T17:18:53.282Z,3.10
2023-01-15T17:21:29.149Z,3.10
2023-01-15T17:23:57.506Z,3.00
2023-01-15T17:26:27.136Z,3.10
2023-01-15T17:28:54.995Z,3.00
2023-01-15T17:31:30.985Z,3.10
2023-01-15T17:34:01.481Z,3.00
2023-01-15T17:36:30.616Z,3.00
2023-01-15T17:38:57.680Z,3.00
2023-01-15T17:41:24.730Z,3.10
2023-01-15T17:43:52.477Z,3.10
2023-01-15T17:46:20.496Z,3.10
2023-01-15T17:48:47.808Z,3.10
2023-01-15T17:51:16.351Z,3.20
2023-01-15T17:53:43.874Z,3.10
2023-01-15T17:56:29.889Z,3.10
2023-01-15T17:59:15.519Z,3.00
2023-01-15T18:02:04.201Z,3.00
2023-01-15T18:04:56.629Z,3.00
2023-01-15T18:07:28.195Z,3.00
2023-01-15T18:09:56.976Z,2.90
2023-01-15T18:12:25.086Z,2.90
2023-01-15T18:14:52.668Z,2.80
2023-01-15T18:17:20.674Z,2.80
2023-01-15T18:19:48.697Z,2.80
2023-01-15T18:22:16.380Z,2.70
2023-01-15T18:24:43.460Z,2.70
2023-01-15T18:27:10.750Z,2.60
2023-01-15T18:29:40.312Z,2.60
2023-01-15T18:32:09.322Z,2.60
2023-01-15T18:34:37.245Z,2.50
2023-01-15T18:37:05.636Z,2.50
2023-01-15T18:39:34.385Z,2.60
2023-01-15T18:42:01.715Z,2.60
2023-01-15T18:44:49.014Z,2.50
2023-01-15T18:47:17.792Z,2.50
2023-01-15T18:49:46.983Z,2.50
2023-01-15T18:52:35.070Z,2.40
2023-01-15T18:55:02.350Z,2.50
2023-01-15T18:57:32.204Z,2.50
2023-01-15T19:00:02.231Z,2.50
2023-01-15T19:02:29.617Z,2.60
2023-01-15T19:04:56.886Z,2.60
2023-01-15T19:07:23.907Z,2.70
2023-01-15T19:09:50.799Z,2.60
2023-01-15T19:12:20.029Z,2.60
2023-01-15T19:15:05.816Z,2.60
2023-01-15T19:17:51.902Z,2.70
2023-01-15T19:20:20.389Z,2.70
2023-01-15T19:22:59.497Z,2.60
2023-01-15T19:25:37.865Z,2.60
2023-01-15T19:28:05.596Z,2.60
2023-01-15T19:30:35.601Z,2.50
2023-01-15T19:33:03.381Z,2.50
2023-01-15T19:35:32.145Z,2.50
2023-01-15T19:37:59.203Z,2.50
2023-01-15T19:40:30.340Z,2.50
2023-01-15T19:43:15.896Z,2.50
2023-01-15T19:46:04.015Z,2.40
2023-01-15T19:48:49.765Z,2.50
2023-01-15T19:51:16.697Z,2.40
2023-01-15T19:53:44.831Z,2.40
2023-01-15T19:56:12.062Z,2.40
2023-01-15T19:58:39.447Z,2.40
2023-01-15T20:01:06.770Z,2.30
2023-01-15T20:03:33.881Z,2.30
2023-01-15T20:06:00.996Z,2.20
2023-01-15T20:08:30.968Z,2.20
2023-01-15T20:10:58.084Z,2.10
2023-01-15T20:13:43.870Z,2.10
2023-01-15T20:16:23.598Z,2.00
2023-01-15T20:18:52.294Z,2.00
2023-01-15T20:21:19.810Z,2.00
2023-01-15T20:23:47.612Z,2.00
2023-01-15T20:26:15.524Z,2.00
2023-01-15T20:28:43.187Z,2.00
2023-01-15T20:31:18.416Z,1.90
2023-01-15T20:33:46.429Z,1.80
2023-01-15T20:36:14.140Z,1.70
2023-01-15T20:38:41.217Z,1.60
2023-01-15T20:41:28.726Z,1.50
2023-01-15T20:44:14.605Z,1.50
2023-01-15T20:46:42.164Z,1.40
2023-01-15T20:49:32.669Z,1.50
2023-01-15T20:52:01.477Z,1.50
2023-01-15T20:54:28.571Z,1.50
2023-01-15T20:56:55.626Z,1.50
2023-01-15T20:59:22.612Z,1.40
2023-01-15T21:01:49.879Z,1.40
2023-01-15T21:04:16.924Z,1.30
2023-01-15T21:06:44.148Z,1.30
2023-01-15T21:09:11.189Z,1.30
2023-01-15T21:11:38.152Z,1.30
2023-01-15T21:14:05.142Z,1.30
2023-01-15T21:16:32.191Z,1.30
2023-01-15T21:19:01.310Z,1.30
2023-01-15T21:21:28.512Z,1.30
2023-01-15T21:23:55.556Z,1.40
2023-01-15T21:26:24.553Z,1.30
2023-01-15T21:28:55.837Z,1.30
2023-01-15T21:31:22.885Z,1.30
2023-01-15T21:33:53.251Z,1.20
2023-01-15T21:36:21.269Z,1.20
2023-01-15T21:38:54.931Z,1.30
2023-01-15T21:41:42.985Z,1.30
2023-01-15T21:44:33.965Z,1.30
2023-01-15T21:47:12.425Z,1.20
2023-01-15T21:49:40.039Z,1.20
2023-01-15T21:52:13.806Z,1.30
2023-01-15T21:54:41.767Z,1.20
2023-01-15T21:57:08.858Z,1.20
2023-01-15T21:59:35.992Z,1.20
2023-01-15T22:02:03.884Z,1.10
2023-01-15T22:04:34.777Z,1.10
2023-01-15T22:07:02.032Z,1.00
2023-01-15T22:09:29.221Z,1.10
2023-01-15T22:11:56.159Z,1.10
2023-01-15T22:14:29.228Z,1.10
2023-01-15T22:16:59.051Z,1.10
2023-01-15T22:19:29.285Z,1.10
2023-01-15T22:22:09.090Z,1.10
2023-01-15T22:24:38.247Z,1.10
2023-01-15T22:27:06.958Z,1.10
2023-01-15T22:29:38.415Z,1.10
2023-01-15T22:32:06.964Z,1.10
2023-01-15T22:34:33.999Z,1.10
2023-01-15T22:37:01.369Z,1.10
2023-01-15T22:39:28.940Z,1.00
2023-01-15T22:42:14.771Z,1.00
2023-01-15T22:44:44.142Z,1.10
2023-01-15T22:47:12.033Z,1.10
2023-01-15T22:49:38.954Z,1.10
2023-01-15T22:52:05.991Z,1.10
2023-01-15T22:54:32.889Z,1.00
2023-01-15T22:56:59.944Z,1.00
2023-01-15T22:59:26.926Z,1.00
2023-01-15T23:01:54.081Z,1.00
2023-01-15T23:04:24.313Z,1.00
2023-01-15T23:06:52.740Z,0.90
2023-01-15T23:09:21.978Z,0.80
2023-01-15T23:11:51.504Z,0.80
2023-01-15T23:14:20.030Z,0.80
2023-01-15T23:16:47.495Z,0.90
2023-01-15T23:19:14.723Z,1.00
2023-01-15T23:21:42.551Z,1.00
2023-01-15T23:24:10.572Z,0.90
2023-01-15T23:26:37.725Z,0.90
2023-01-15T23:29:05.300Z,0.90
2023-01-15T23:31:32.587Z,1.10
2023-01-15T23:33:59.596Z,1.20
2023-01-15T23:36:26.797Z,1.20
2023-01-15T23:38:53.947Z,1.30
2023-01-15T23:41:41.394Z,1.30
2023-01-15T23:44:37.662Z,1.30
2023-01-15T23:47:06.161Z,1.30
2023-01-15T23:49:33.379Z,1.30
2023-01-15T23:52:00.548Z,1.30
2023-01-15T23:54:29.076Z,1.30
2023-01-15T23:56:56.421Z,1.30
2023-01-15T23:59:23.869Z,1.30
